Latest Coastal Weather Observations for Norfolk Island

IDN60701

Issued at 10:21 pm EST Friday 4 September 2015 (issued every 10 minutes, with the page automatically refreshed every 10 minutes)

About coastal observations | Map of coastal stations | Coastal observations for NSW | Marine services | Other Formats
Station Details ID: 200288 Name: NORFOLK ISLAND AERO Lat: -29.04 Lon: 167.94 Height: 111.73 m
Data from the previous 72 hours. | See also: Recent months at Norfolk Island
Date/Time
EST
Temp

°C
Wind Pressure Rain
since 9am
mm
Weather Cloud Vis
km
Sea
Height
m
Swell
Dir
 
Speed
knots
Gust
knots
hPa Trend Height
m
Period
s
Dir
04/10:14pm 16.5 W 26 36 1008.5 - 7.0 - Partly cloudy 6 - - - -
04/10:07pm 17.7 W 22 33 1008.2 - 7.0 - Partly cloudy 9 - - - -
04/10:00pm 17.5 W 20 28 1008.3 - 7.0 - Mostly clear 10 - - - -
04/09:30pm 17.8 W 23 33 1008.3 - 7.0 - Mostly clear 10 - - - -
04/09:00pm 17.2 W 23 36 1008.4 - 7.0 - Mostly clear 10 - - - -
04/08:35pm 18.3 W 26 36 1008.3 - 7.0 - Mostly clear 10 - - - -
04/08:30pm 18.3 W 26 34 1008.3 - 7.0 - Mostly clear 10 - - - -
04/08:00pm 18.3 W 24 34 1008.4 - 7.0 - Mostly clear 10 - - - -
04/07:30pm 18.2 W 25 35 1008.2 F 7.0 Fine Mostly clear 10 - - - -
04/07:09pm 18.2 W 25 35 1008.6 - 7.0 - Mostly clear 10 - - - -
04/07:00pm 18.3 W 26 35 1008.6 - 7.0 - Mostly clear 10 - - - -
04/06:42pm 18.3 W 25 35 1008.4 - 7.0 - Mostly clear 10 - - - -
04/06:30pm 18.2 W 24 32 1008.3 - 7.0 - Mostly clear 10 - - - -
04/06:09pm 18.3 W 23 33 1008.2 - 7.0 - Partly cloudy 10 - - - -
04/06:00pm 18.3 W 23 31 1008.3 - 7.0 - Partly cloudy 10 - - - -
04/05:31pm 18.2 W 23 33 1008.1 - 7.0 - Partly cloudy 10 - - - -
04/05:25pm 18.2 W 23 33 1008.0 - 7.0 - Partly cloudy 10 - - - -
04/05:00pm 18.1 W 25 34 1007.8 - 7.0 - Partly cloudy 10 - - - -
04/04:34pm 18.1 W 22 33 1007.6 - 7.0 - Partly cloudy 10 - - - -
04/04:30pm 18.0 W 21 29 1007.4 F 7.0 Fine Partly cloudy 11 - - - -
04/04:00pm 18.3 W 20 30 1007.3 - 7.0 - Mostly clear 10 - - - -
04/03:30pm 18.3 W 18 29 1007.4 - 7.0 - Partly cloudy 10 - - - -
04/03:00pm 18.4 W 20 32 1007.4 - 7.0 - Mostly cloudy 10 - - - -
04/02:38pm 18.5 WNW 18 29 1007.3 - 7.0 - Partly cloudy 10 - - - -
04/02:30pm 18.6 WNW 16 24 1007.3 - 7.0 - Mostly cloudy 10 - - - -
04/02:00pm 17.7 WNW 18 29 1007.4 - 7.0 - Partly cloudy 10 - - - -
04/01:32pm 17.8 WNW 18 28 1007.6 - 7.0 - Mostly clear 10 - - - -
04/01:30pm 17.7 WNW 17 25 1007.4 F 7.0 Haze Mostly clear 18 - - - -
04/01:00pm 16.2 WNW 16 24 1007.9 - 7.0 - Mostly clear 10 - - - -
04/12:30pm 14.9 NW 12 21 1007.9 - 7.0 Rain Mostly clear 10 - - - -
04/11:55am 14.8 W 19 29 1008.8 - 6.6 Rain Partly cloudy 8 - - - -
04/11:30am 14.9 W 17 25 1009.4 - 6.2 Rain Partly cloudy 7 - - - -
04/11:00am 14.8 W 17 26 1010.0 - 5.4 Rain Partly cloudy 4 - - - -
04/10:41am 14.7 W 17 26 1010.7 - 4.0 - Partly cloudy 4 - - - -
04/10:30am 14.6 W 15 - 1011.0 R - Rain Cloudy 5 - - - -
04/10:29am 14.6 W 15 25 1011.1 - 2.8 Showers Partly cloudy 5 - - - -
04/10:00am 14.7 W 17 24 1011.0 - 0.8 Showers Partly cloudy 5 - - - -
04/09:30am 19.5 NNW 12 24 1010.2 - 0.0 Showers Mostly clear 8 - - - -
04/09:00am 19.6 NNW 12 22 1010.8 - 0.0 - Mostly clear 10 - - - -
04/08:30am 19.6 NNW 12 25 1010.9 - 0.0 - Mostly clear 10 - - - -
04/08:00am 19.7 NNW 13 25 1011.5 - 0.0 - Mostly clear 10 - - - -
04/07:39am 19.5 NNW 15 26 1011.3 - 0.0 - Mostly clear 10 - - - -
04/07:30am 19.8 NNW 15 22 1011.2 F 0.0 Haze Partly cloudy 18 - - - -
04/07:00am 19.7 NNW 13 24 1011.5 - 0.0 - Partly cloudy 10 - - - -
04/06:30am 18.9 NNW 12 18 1011.9 - 0.0 - Partly cloudy 10 - - - -
04/06:00am 18.7 N 12 20 1012.2 - 0.0 - Partly cloudy 10 - - - -
04/05:30am 18.6 NNW 10 19 1012.5 - 0.0 - Partly cloudy 10 - - - -
04/05:00am 18.3 NNW 10 18 1012.6 - 0.0 - Partly cloudy 10 - - - -
04/04:30am 18.4 NNW 11 21 1013.0 - 0.0 - Mostly clear 10 - - - -
04/04:00am 18.3 NNW 10 18 1013.5 - 0.0 - Partly cloudy 10 - - - -
04/03:30am 18.2 NNW 9 17 1013.1 - 0.0 - - 10 - - - -
04/03:00am 17.9 NNW 10 21 1013.3 - 0.0 - Partly cloudy 10 - - - -
04/02:30am 17.8 N 9 15 1013.2 - 0.0 - Partly cloudy 10 - - - -
04/02:00am 17.6 N 8 16 1013.7 - 0.0 - Partly cloudy 10 - - - -
04/01:30am 17.5 N 8 16 1013.9 - 0.0 - Mostly clear 10 - - - -
04/01:00am 17.4 N 10 17 1014.2 - 0.0 - Partly cloudy 10 - - - -
04/12:30am 17.1 N 9 16 1014.4 - 0.0 - - 10 - - - -
04/12:00am 17.0 N 7 12 1015.4 - 0.0 - Partly cloudy 10 - - - -
 
Date/Time
EST
Temp

°C
Wind Pressure Rain
since 9am
mm
Weather Cloud Vis
km
Sea
Height
m
Swell
Dir
 
Speed
knots
Gust
knots
hPa Trend Height
m
Period
s
Dir
03/11:30pm 16.2 N 6 9 1015.8 - 0.0 - - 10 - - - -
03/11:00pm 16.3 N 6 8 1016.1 - 0.0 - - 10 - - - -
03/10:30pm 16.6 N 6 10 1016.3 - 0.0 - Partly cloudy 10 - - - -
03/10:00pm 16.1 NNW 4 6 1017.2 - 0.0 - Mostly clear 10 - - - -
03/09:30pm 16.1 NNW 4 6 1017.3 - 0.0 - Mostly clear 10 - - - -
03/09:00pm 16.4 N 5 7 1017.4 - 0.0 - Mostly clear 10 - - - -
03/08:30pm 15.8 N 5 6 1017.5 - 0.0 - Mostly clear 10 - - - -
03/08:00pm 15.9 N 3 5 1017.9 - 0.0 - Mostly clear 10 - - - -
03/07:30pm 15.8 NNW 4 5 1018.0 F 0.0 Fine Mostly clear 30 - - - -
03/07:00pm 16.1 N 3 4 1018.2 - 0.0 - Mostly clear 10 - - - -
03/06:30pm 16.0 NNW 4 5 1018.2 - 0.0 - Mostly clear 10 - - - -
03/06:00pm 16.0 N 3 4 1017.9 - 0.0 - Mostly clear 10 - - - -
03/05:30pm 16.2 NNW 3 5 1018.1 - 0.0 - Mostly clear 10 - - - -
03/05:00pm 16.3 NNW 3 5 1018.0 - 0.0 - Mostly clear 10 - - - -
03/04:30pm 17.1 NW 5 7 1017.8 R 0.0 Fine Mostly clear 30 - - - -
03/04:00pm 18.1 WNW 7 9 1017.6 - 0.0 - Mostly clear 10 - - - -
03/03:30pm 17.9 WNW 7 9 1017.6 - 0.0 - Mostly clear 10 - - - -
03/03:00pm 19.2 W 7 10 1017.3 - 0.0 - Mostly clear 10 - - - -
03/02:30pm 19.2 WNW 7 10 1017.1 - 0.0 - Mostly clear 10 - - - -
03/02:00pm 19.2 W 8 11 1017.2 - 0.0 - - 10 - - - -
03/01:30pm 19.3 WSW 5 8 1017.2 F 0.0 Fine Mostly clear 25 - - - -
03/01:00pm 18.3 W 7 11 1017.7 - 0.0 - Mostly clear 10 - - - -
03/12:30pm 19.4 W 8 11 1018.0 - 0.0 - Mostly clear 10 - - - -
03/12:00pm 19.4 W 8 11 1018.1 - 0.0 - Mostly clear 10 - - - -
03/11:30am 19.0 W 7 10 1018.5 - 0.0 - Mostly clear 10 - - - -
03/11:00am 18.9 WSW 8 13 1018.9 - 0.0 - Mostly clear 10 - - - -
03/10:30am 18.6 WSW 7 10 1019.0 R 0.0 Fine Mostly clear 25 - - - -
03/10:00am 18.6 WSW 7 13 1019.3 - 0.0 - Mostly clear 10 - - - -
03/09:30am 18.6 SW 7 9 1019.4 - 0.0 - Mostly clear 10 - - - -
03/09:00am 18.8 WSW 7 9 1019.4 - 0.0 - Mostly clear 10 - - - -
03/08:30am 18.4 WSW 7 10 1019.5 - 0.0 - Mostly clear 10 - - - -
03/08:00am 18.3 SW 7 11 1019.5 - 0.0 - Mostly clear 10 - - - -
03/07:30am 18.0 SW 7 9 1019.1 R 0.0 Fine Mostly clear 25 - - - -
03/07:00am 17.8 WSW 8 11 1019.1 - 0.0 - Mostly clear 10 - - - -
03/06:30am 17.4 SSW 8 10 1018.8 - 0.0 - Mostly clear 10 - - - -
03/06:00am 17.0 SSW 7 11 1018.4 - 0.0 - Mostly clear 10 - - - -
03/05:30am 16.2 SW 7 9 1018.2 - 0.0 - - 10 - - - -
03/05:00am 16.0 SW 8 11 1017.9 - 0.0 - Partly cloudy 10 - - - -
03/04:30am 16.1 SW 8 11 1017.4 - 0.0 - Partly cloudy 10 - - - -
03/04:00am 15.9 SW 7 10 1017.1 - 0.0 - - 10 - - - -
03/03:30am 16.5 SW 8 12 1017.1 - 0.0 - Partly cloudy 10 - - - -
03/03:00am 16.4 SW 7 10 1016.9 - 0.0 - Partly cloudy 10 - - - -
03/02:30am 16.3 SW 6 8 1017.0 - 0.0 - Partly cloudy 10 - - - -
03/02:00am 16.4 SW 6 9 1016.9 - 0.0 - Partly cloudy 10 - - - -
03/01:30am 16.9 WSW 10 15 1016.5 - 0.0 - Cloudy 10 - - - -
03/01:00am 16.4 WSW 9 13 1016.9 - 0.0 - Partly cloudy 10 - - - -
03/12:30am 16.8 SW 11 15 1017.0 - 0.0 - Partly cloudy 10 - - - -
03/12:00am 16.8 SW 10 15 1016.9 - 0.0 - Partly cloudy 10 - - - -
 
Date/Time
EST
Temp

°C
Wind Pressure Rain
since 9am
mm
Weather Cloud Vis
km
Sea
Height
m
Swell
Dir
 
Speed
knots
Gust
knots
hPa Trend Height
m
Period
s
Dir
02/11:30pm 17.2 WSW 12 18 1016.8 - 0.0 - Partly cloudy 10 - - - -
02/11:00pm 17.2 WSW 12 16 1016.9 - 0.0 - Partly cloudy 10 - - - -
02/10:30pm 17.0 WSW 12 18 1016.5 - 0.0 - Mostly clear 10 - - - -
02/10:00pm 17.0 WSW 14 19 1017.0 - 0.0 - Mostly clear 10 - - - -
02/09:30pm 17.5 WSW 14 19 1017.2 - 0.0 - Mostly clear 10 - - - -
02/09:00pm 17.2 WSW 14 21 1017.1 - 0.0 - Mostly clear 10 - - - -
02/08:30pm 17.4 WSW 13 18 1017.1 - 0.0 - Mostly clear 10 - - - -
02/08:00pm 17.3 WSW 13 18 1016.9 - 0.0 - Mostly clear 10 - - - -
02/07:30pm 17.4 WSW 15 21 1016.6 F 0.0 Distant precip. Mostly clear 20 - - - -
02/07:00pm 17.6 WSW 15 21 1016.6 - 0.0 - Mostly clear 10 - - - -
02/06:30pm 17.5 WSW 16 20 1016.4 - 0.0 - Mostly clear 10 - - - -
02/06:00pm 17.4 WSW 17 21 1016.1 - 0.0 - Mostly clear 10 - - - -
02/05:30pm 17.5 W 17 24 1015.7 - 0.0 - Mostly clear 10 - - - -
02/05:00pm 17.9 W 17 27 1015.5 - 0.0 - Mostly clear 10 - - - -
02/04:57pm 17.9 W 17 27 1015.5 - 0.0 - Mostly clear 10 - - - -
02/04:30pm 17.9 W 16 22 1015.2 R 0.0 Distant precip. Mostly clear 20 - - - -
02/04:00pm 18.2 W 18 26 1015.2 - 0.0 - Mostly clear 10 - - - -
02/03:47pm 18.4 W 17 29 1015.1 - 0.0 - Mostly clear 10 - - - -
02/03:30pm 18.2 W 18 24 1014.9 - 0.0 - Mostly clear 10 - - - -
02/03:00pm 18.8 W 20 30 1014.9 - 0.0 - Mostly clear 10 - - - -
02/02:30pm 19.2 W 18 28 1014.8 - 0.0 - Mostly clear 10 - - - -
02/02:08pm 19.1 W 18 28 1014.6 - 0.0 - Partly cloudy 10 - - - -
02/02:00pm 19.3 W 20 27 1014.6 - 0.0 - Partly cloudy 10 - - - -
02/01:37pm 19.5 W 20 31 1014.6 - 0.0 - Mostly clear 10 - - - -
02/01:30pm 19.2 W 19 26 1014.5 R 0.0 Fine Mostly clear 20 - - - -
02/12:56pm 19.0 W 17 27 1014.8 - 0.0 - Partly cloudy 10 - - - -
02/12:30pm 18.1 W 19 28 1015.0 - 0.0 - Mostly clear 10 - - - -
02/12:00pm 19.9 W 18 29 1015.1 - 0.0 - Mostly clear 10 - - - -
02/11:49am 19.3 W 18 28 1015.2 - 0.0 - Mostly clear 10 - - - -
02/11:30am 19.7 W 18 27 1015.2 - 0.0 - Mostly clear 10 - - - -
02/11:00am 19.7 W 17 26 1015.5 - 0.0 - Mostly clear 10 - - - -
02/10:30am 19.1 W 18 26 1015.5 R 0.0 Fine Mostly clear 22 - - - -
02/10:00am 19.4 W 18 26 1016.0 - 0.0 - Mostly clear 10 - - - -
02/09:15am 19.2 W 18 28 1016.0 - 0.0 - Mostly clear 10 - - - -
02/09:00am 19.3 W 21 28 1016.0 - 0.0 - Mostly clear 10 - - - -
02/08:30am 18.6 W 19 25 1016.0 - 0.0 - Mostly clear 10 - - - -
02/08:00am 18.5 W 17 22 1016.0 - 0.0 - Partly cloudy 10 - - - -
02/07:44am 18.7 W 16 26 1015.9 - 0.0 - Mostly clear 10 - - - -
02/07:30am 18.6 W 15 23 1015.7 R 0.2 Distant precip. Mostly clear 25 - - - -
02/07:00am 18.1 WNW 12 18 1015.6 - 0.2 - Mostly clear 10 - - - -
02/06:30am 18.0 W 15 21 1015.2 - 0.2 Showers Partly cloudy 10 - - - -
02/06:00am 17.7 W 15 22 1015.0 - 0.2 - Partly cloudy 10 - - - -
02/05:30am 17.2 W 13 19 1014.8 - 0.0 - Partly cloudy 10 - - - -
02/05:00am 16.6 W 11 18 1014.6 - 0.0 - - 10 - - - -
02/04:30am 16.3 W 15 23 1014.2 - 0.0 - Cloudy 10 - - - -
02/04:00am 17.3 W 15 21 1014.1 - 0.0 - Partly cloudy 10 - - - -
02/03:30am 17.0 WNW 15 21 1013.9 - 0.0 - Partly cloudy 10 - - - -
02/03:00am 17.3 W 15 20 1013.8 - 0.0 - Partly cloudy 10 - - - -
02/02:30am 17.4 W 17 22 1013.8 - 0.0 - Partly cloudy 10 - - - -
02/02:00am 17.4 W 14 20 1013.8 - 0.0 - Partly cloudy 10 - - - -
02/01:30am 17.4 W 15 21 1013.9 - 0.0 - Mostly clear 10 - - - -
02/01:00am 17.5 W 16 21 1014.2 - 0.0 - Partly cloudy 10 - - - -
02/12:30am 17.5 W 14 19 1014.3 - 0.0 - Partly cloudy 10 - - - -
02/12:00am 17.4 W 14 20 1014.2 - 0.0 - - 10 - - - -
 
Date/Time
EST
Temp

°C
Wind Pressure Rain
since 9am
mm
Weather Cloud Vis
km
Sea
Height
m
Swell
Dir
 
Speed
knots
Gust
knots
hPa Trend Height
m
Period
s
Dir
01/11:30pm 17.3 WNW 12 17 1014.4 - 0.0 - - 10 - - - -
01/11:00pm 17.4 W 12 17 1014.6 - 0.0 - Partly cloudy 10 - - - -
01/10:30pm 17.4 W 14 20 1014.2 - 0.0 - Mostly clear 10 - - - -
01/10:00pm 17.4 W 13 18 1014.4 - 0.0 - Mostly clear 10 - - - -
01/09:30pm 17.1 WNW 11 17 1014.4 - 0.0 - Mostly clear 10 - - - -
01/09:00pm 16.0 WNW 13 19 1014.6 - 0.0 Showers Mostly clear 10 - - - -

Other Formats:

Comma delimited format used in spreadsheet applications
http://www.bom.gov.au/fwo/IDN60701/IDN60701.94996.axf

JavaScript Object Notation format (JSON) in row-major order
http://www.bom.gov.au/fwo/IDN60701/IDN60701.94996.json